Hlavní strana
METAR-TAF:

METAR-TAF

Letiště :

Bogue_Field/MCALF

Swansboro, Severní Karolína, Spojené státy americké

zeměpisná šířka: 34-41-34N, zeměpisná délka: 077-01-46W, výška: 6 m

Aktuální stav počasí

Zpráva byla vytvořena před 41 minutami, v 09:57 UTC
Severoseverovýchodní vítr 9 kt
Teplota 11°C
Vlhkost vzduchu 82%
Tlak 1022 hPa
Zataženo ve výšce 5000 ft

METAR: KNJM 240957Z AUTO 03009KT OVC050 11/08 A3017 RMK AO2 RAE02 SLP219 P0000 T01060083 TSNO $

Čas: 05:38 (10:38 UTC)


TAF: chybějící

Stav a předpovědi počasí z více než 4 000 letišť (zprávy METAR a TAF).

Červené a žluté tečky na mapě představují dostupné meteorologické stanice.

Když kurzor umístíte na tečku, zobrazí se název stanice.

Pak kliknutím zobrazíte stav a předpověď počasí.

Chcete-li změnit mapu, kliknutím na zelené tlačítko se znaménkem +mapu přiblížíte, kliknutím na zelené tlačítko se znaménkem – mapu oddálíte a kliknutím na zelené šipky přejdete na sousední mapy.


METAR-TAF: